createdAt,value
2023-03-29T00:01:48.289Z,2.58
2023-03-29T00:11:52.932Z,2.43
2023-03-29T00:21:55.853Z,2.29
2023-03-29T00:32:00.927Z,2.18
2023-03-29T00:42:04.725Z,2.05
2023-03-29T00:52:09.226Z,1.92
2023-03-29T01:02:14.290Z,1.82
2023-03-29T01:12:26.007Z,1.71
2023-03-29T01:22:39.263Z,1.57
2023-03-29T01:32:50.723Z,1.43
2023-03-29T01:43:00.991Z,1.29
2023-03-29T01:53:10.717Z,1.14
2023-03-29T02:03:17.814Z,1.02
2023-03-29T02:13:22.586Z,0.91
2023-03-29T02:23:34.527Z,0.81
2023-03-29T02:33:43.461Z,0.70
2023-03-29T02:43:48.672Z,0.63
2023-03-29T02:54:44.165Z,0.54
2023-03-29T03:04:50.993Z,0.49
2023-03-29T03:15:00.572Z,0.47
2023-03-29T03:25:04.434Z,0.49
2023-03-29T03:35:10.338Z,0.44
2023-03-29T03:45:13.589Z,0.44
2023-03-29T03:55:26.145Z,0.41
2023-03-29T04:05:29.645Z,0.42
2023-03-29T04:15:38.986Z,0.41
2023-03-29T04:25:44.455Z,0.38
2023-03-29T04:35:53.956Z,0.41
2023-03-29T04:45:58.048Z,0.43
2023-03-29T04:56:03.927Z,0.45
2023-03-29T05:06:09.061Z,0.55
2023-03-29T05:16:13.654Z,0.67
2023-03-29T05:26:16.687Z,0.79
2023-03-29T05:36:21.975Z,0.90
2023-03-29T05:46:25.071Z,1.00
2023-03-29T05:56:30.009Z,1.10
2023-03-29T06:06:33.206Z,1.21
2023-03-29T06:16:39.092Z,1.34
2023-03-29T06:26:43.614Z,1.41
2023-03-29T06:36:48.368Z,1.58
2023-03-29T06:46:54.527Z,1.75
2023-03-29T06:57:00.237Z,1.84
2023-03-29T07:07:04.437Z,1.91
2023-03-29T07:17:12.764Z,2.02
2023-03-29T07:27:27.247Z,2.09
2023-03-29T07:37:48.805Z,2.16
2023-03-29T07:48:18.042Z,2.25
2023-03-29T07:58:30.135Z,2.30
2023-03-29T08:08:33.540Z,2.40
2023-03-29T08:18:40.354Z,2.51
2023-03-29T08:28:44.596Z,2.57
2023-03-29T08:38:50.901Z,2.65
2023-03-29T08:50:03.103Z,2.76
2023-03-29T09:15:55.883Z,2.92
2023-03-29T09:24:01.206Z,3.00
2023-03-29T09:34:15.761Z,3.07
2023-03-29T09:44:31.130Z,3.10
2023-03-29T09:54:35.391Z,3.14
2023-03-29T10:04:42.239Z,3.19
2023-03-29T10:14:48.643Z,3.29
2023-03-29T10:24:56.119Z,3.37
2023-03-29T10:35:09.899Z,3.42
2023-03-29T10:45:29.241Z,3.50
2023-03-29T10:55:37.866Z,3.58
2023-03-29T11:05:49.643Z,3.61
2023-03-29T11:16:05.039Z,3.63
2023-03-29T11:26:18.704Z,3.68
2023-03-29T11:36:32.234Z,3.70
2023-03-29T11:46:40.426Z,3.71
2023-03-29T11:56:47.718Z,3.73
2023-03-29T12:07:02.069Z,3.78
2023-03-29T12:17:11.940Z,3.78
2023-03-29T12:27:27.366Z,3.83
2023-03-29T12:37:43.887Z,3.88
2023-03-29T12:47:51.938Z,3.87
2023-03-29T12:58:03.841Z,3.94
2023-03-29T13:08:26.778Z,3.98
2023-03-29T13:18:40.260Z,4.03
2023-03-29T13:29:03.965Z,4.07
2023-03-29T13:39:14.082Z,4.03
2023-03-29T13:49:23.804Z,4.01
2023-03-29T13:59:33.982Z,3.94
2023-03-29T14:09:46.309Z,3.95
2023-03-29T14:19:49.697Z,3.93
2023-03-29T14:29:53.976Z,3.92
2023-03-29T14:39:59.347Z,3.91
2023-03-29T14:50:04.829Z,3.88
2023-03-29T15:00:22.884Z,3.85
2023-03-29T15:10:27.479Z,3.82
2023-03-29T15:20:34.153Z,3.78
2023-03-29T15:30:46.188Z,3.75
2023-03-29T15:40:52.415Z,3.72
2023-03-29T15:50:59.255Z,3.69
2023-03-29T16:01:12.322Z,3.65
2023-03-29T16:11:17.050Z,3.61
2023-03-29T16:21:22.561Z,3.57
2023-03-29T16:31:27.400Z,3.53
2023-03-29T16:41:30.292Z,3.48
2023-03-29T16:51:34.630Z,3.44
2023-03-29T17:01:37.718Z,3.39
2023-03-29T17:11:42.567Z,3.36
2023-03-29T17:21:46.172Z,3.35
2023-03-29T17:31:51.161Z,3.35
2023-03-29T17:41:54.183Z,3.35
2023-03-29T17:51:58.476Z,3.33
2023-03-29T18:02:03.901Z,3.32
2023-03-29T18:12:08.645Z,3.31
2023-03-29T18:22:12.720Z,3.30
2023-03-29T18:32:17.682Z,3.30
2023-03-29T18:42:22.226Z,3.30
2023-03-29T18:52:28.791Z,3.30
2023-03-29T19:02:31.824Z,3.30
2023-03-29T19:12:36.340Z,3.28
2023-03-29T19:22:39.826Z,3.28
2023-03-29T19:32:47.916Z,3.27
2023-03-29T19:42:50.811Z,3.26
2023-03-29T19:52:57.160Z,3.21
2023-03-29T20:03:00.269Z,3.17
2023-03-29T20:13:06.847Z,3.13
2023-03-29T20:23:11.392Z,3.09
2023-03-29T20:33:17.546Z,3.01
2023-03-29T20:43:20.922Z,2.96
2023-03-29T20:53:30.364Z,2.87
2023-03-29T21:03:34.976Z,2.83
2023-03-29T21:13:42.237Z,2.80
2023-03-29T21:23:48.749Z,2.75
2023-03-29T21:34:15.582Z,2.68
2023-03-29T21:44:18.624Z,2.60
2023-03-29T21:54:26.375Z,2.51
2023-03-29T22:04:37.179Z,2.46
2023-03-29T22:14:44.889Z,2.36
2023-03-29T22:24:47.900Z,2.29
2023-03-29T22:34:52.394Z,2.23
2023-03-29T22:44:55.286Z,2.21
2023-03-29T22:54:59.882Z,2.18
2023-03-29T23:05:03.720Z,2.16
2023-03-29T23:15:22.345Z,2.11
2023-03-29T23:25:26.433Z,2.06
2023-03-29T23:35:59.204Z,2.00
2023-03-29T23:56:31.316Z,1.98
